메인 페이지
METAR-TAF:

METAR-TAF

공항 :

헨더슨, 네바다, 미국

위도: 35-58-35N, 경도: 115-07-58W, 고도: 749m

현재 날씨관측

예보는 15분 전, 02:56시(UTC)에 발표되었습니다.
남남동7kt
온도 36°C
습도 19%
기압 1009 hPa
시정: 16.1km
맑음

METAR: KHND 150256Z 16007KT 10SM CLR 36/09 A2981 RMK AO2 SLP059 T03610094 53002 $

시각: 20:11 (03:11 UTC)

예보

예보는 3 시간 51분 전, 23:20시(UTC)에 발표되었습니다.
예보 대상 시간: 15일 00시부터 15일 24시까지 (UTC)
남남서12kt, 순간 최대 풍속 18kt
시정: 10km
고도 15000ft 상공 구름 보통, 적란운.
시계 내 뇌우
일시적
15일 00시부터 15일 01시까지 (UTC)
여러 방향의 바람 15kt, 순간 최대 풍속 25kt
고도 12000ft 상공 구름 많음, 적란운.
뇌우, 약한비
15일 0300시부터 (UTC)
11kt
시정: 10km
고도 15000ft 상공 구름 조금
15일 2000시부터 (UTC)
10kt
시정: 10km
고도 15000ft 상공 구름 보통, 적란운.
고도 20000ft 상공 구름 보통
시계 내 뇌우

TAF: KHND 142320Z 1500/1524 21012G18KT P6SM VCTS SCT150CB TEMPO 1500/1501 VRB15G25KT -TSRA BKN120CB FM150300 19011KT P6SM FEW150 FM152000 19010KT P6SM VCTS SCT150CB SCT200

4,000개 이상의 공항 관측 자료 및 예보 (METAR 및 TAF 보고).

지도상에서 검색 가능한 기상관측소가 노란 점과 빨간 점으로 표시되어 있습니다.

기상관측소 명을 보려면 표시 위로 마우스를 이동하세요.

날씨 관측과 예보를 보려면 클릭하세요.

지도 변경 : 확대하려면 엑스 표시가 있는 녹색 버튼, 축소하려면 빼기 표시가 있는 녹색 버튼, 다음 페이지의 지도를 보려면 녹색 화살표를 클릭하세요.


METAR-TAF: